sensor_id;sensor_type;location;lat;lon;timestamp;temperature;humidity
81867;DHT22;71318;-36.550;-64.300;2024-02-16T10:57:19;18.10;99.90
81867;DHT22;71318;-36.550;-64.300;2024-02-16T10:59:46;18.30;99.90
81867;DHT22;71318;-36.550;-64.300;2024-02-16T11:02:13;18.50;99.90
81867;DHT22;71318;-36.550;-64.300;2024-02-16T11:04:40;18.60;99.90
81867;DHT22;71318;-36.550;-64.300;2024-02-16T11:07:15;18.70;99.90
81867;DHT22;71318;-36.550;-64.300;2024-02-16T11:09:42;18.80;99.90
81867;DHT22;71318;-36.550;-64.300;2024-02-16T11:12:11;18.90;99.90
81867;DHT22;71318;-36.550;-64.300;2024-02-16T11:14:44;19.00;99.90
81867;DHT22;71318;-36.550;-64.300;2024-02-16T11:17:14;19.10;99.90
81867;DHT22;71318;-36.550;-64.300;2024-02-16T11:19:44;19.30;99.90
81867;DHT22;71318;-36.550;-64.300;2024-02-16T11:22:14;19.40;99.90
81867;DHT22;71318;-36.550;-64.300;2024-02-16T11:24:47;19.60;99.90
81867;DHT22;71318;-36.550;-64.300;2024-02-16T11:27:14;19.70;99.90
81867;DHT22;71318;-36.550;-64.300;2024-02-16T11:29:47;19.80;99.90
81867;DHT22;71318;-36.550;-64.300;2024-02-16T11:32:14;19.90;99.90
81867;DHT22;71318;-36.550;-64.300;2024-02-16T11:34:40;20.00;99.90
81867;DHT22;71318;-36.550;-64.300;2024-02-16T11:37:07;20.10;99.90
81867;DHT22;71318;-36.550;-64.300;2024-02-16T11:39:33;20.20;99.90
81867;DHT22;71318;-36.550;-64.300;2024-02-16T11:42:05;20.40;99.90
81867;DHT22;71318;-36.550;-64.300;2024-02-16T11:44:33;20.60;99.90
81867;DHT22;71318;-36.550;-64.300;2024-02-16T11:47:00;20.90;99.90
81867;DHT22;71318;-36.550;-64.300;2024-02-16T11:49:30;21.10;99.90
81867;DHT22;71318;-36.550;-64.300;2024-02-16T11:51:56;21.10;99.90
81867;DHT22;71318;-36.550;-64.300;2024-02-16T11:54:25;21.20;99.90
81867;DHT22;71318;-36.550;-64.300;2024-02-16T11:56:52;21.30;99.90
81867;DHT22;71318;-36.550;-64.300;2024-02-16T11:59:19;21.50;99.90
81867;DHT22;71318;-36.550;-64.300;2024-02-16T12:01:55;21.80;99.90
81867;DHT22;71318;-36.550;-64.300;2024-02-16T12:04:25;21.90;99.90
81867;DHT22;71318;-36.550;-64.300;2024-02-16T12:06:52;22.00;99.90
81867;DHT22;71318;-36.550;-64.300;2024-02-16T12:09:19;22.10;99.50
81867;DHT22;71318;-36.550;-64.300;2024-02-16T12:11:47;22.00;97.60
81867;DHT22;71318;-36.550;-64.300;2024-02-16T12:14:15;22.20;97.20
81867;DHT22;71318;-36.550;-64.300;2024-02-16T12:16:42;22.30;97.20
81867;DHT22;71318;-36.550;-64.300;2024-02-16T12:19:08;22.60;95.80
81867;DHT22;71318;-36.550;-64.300;2024-02-16T12:21:37;22.60;95.00
81867;DHT22;71318;-36.550;-64.300;2024-02-16T12:24:04;22.80;95.70
81867;DHT22;71318;-36.550;-64.300;2024-02-16T12:26:30;22.90;93.00
81867;DHT22;71318;-36.550;-64.300;2024-02-16T12:28:57;23.10;92.50
81867;DHT22;71318;-36.550;-64.300;2024-02-16T12:31:23;23.20;92.40
81867;DHT22;71318;-36.550;-64.300;2024-02-16T12:33:51;23.40;91.70
81867;DHT22;71318;-36.550;-64.300;2024-02-16T12:36:18;23.80;88.80
81867;DHT22;71318;-36.550;-64.300;2024-02-16T12:38:44;23.70;88.60
81867;DHT22;71318;-36.550;-64.300;2024-02-16T12:41:11;24.00;87.90
81867;DHT22;71318;-36.550;-64.300;2024-02-16T12:43:37;24.00;87.60
81867;DHT22;71318;-36.550;-64.300;2024-02-16T12:46:03;24.00;85.40
81867;DHT22;71318;-36.550;-64.300;2024-02-16T12:48:30;24.00;85.30
81867;DHT22;71318;-36.550;-64.300;2024-02-16T12:50:56;24.20;84.90
81867;DHT22;71318;-36.550;-64.300;2024-02-16T12:53:23;24.20;84.00
81867;DHT22;71318;-36.550;-64.300;2024-02-16T12:55:56;24.40;84.20
81867;DHT22;71318;-36.550;-64.300;2024-02-16T12:58:22;24.70;85.10
81867;DHT22;71318;-36.550;-64.300;2024-02-16T13:00:48;24.70;85.60
81867;DHT22;71318;-36.550;-64.300;2024-02-16T13:03:15;25.00;83.40
81867;DHT22;71318;-36.550;-64.300;2024-02-16T13:05:41;25.00;82.30
81867;DHT22;71318;-36.550;-64.300;2024-02-16T13:08:08;25.30;82.50
81867;DHT22;71318;-36.550;-64.300;2024-02-16T13:10:35;25.30;82.00
81867;DHT22;71318;-36.550;-64.300;2024-02-16T13:13:01;25.40;80.10
81867;DHT22;71318;-36.550;-64.300;2024-02-16T13:15:28;25.70;79.90
81867;DHT22;71318;-36.550;-64.300;2024-02-16T13:17:54;25.80;79.10
81867;DHT22;71318;-36.550;-64.300;2024-02-16T13:20:21;25.40;79.10
81867;DHT22;71318;-36.550;-64.300;2024-02-16T13:22:47;25.70;78.10
81867;DHT22;71318;-36.550;-64.300;2024-02-16T13:25:14;25.70;77.90
81867;DHT22;71318;-36.550;-64.300;2024-02-16T13:27:41;25.70;78.20
81867;DHT22;71318;-36.550;-64.300;2024-02-16T13:30:07;25.90;77.50
81867;DHT22;71318;-36.550;-64.300;2024-02-16T13:32:34;25.60;77.90
81867;DHT22;71318;-36.550;-64.300;2024-02-16T13:35:02;26.00;78.50
81867;DHT22;71318;-36.550;-64.300;2024-02-16T13:37:28;26.30;77.90
81867;DHT22;71318;-36.550;-64.300;2024-02-16T13:39:55;26.50;76.50
81867;DHT22;71318;-36.550;-64.300;2024-02-16T13:42:21;26.20;78.00
81867;DHT22;71318;-36.550;-64.300;2024-02-16T13:44:48;26.20;76.40
81867;DHT22;71318;-36.550;-64.300;2024-02-16T13:47:14;26.20;74.80
81867;DHT22;71318;-36.550;-64.300;2024-02-16T13:49:41;26.40;74.10
81867;DHT22;71318;-36.550;-64.300;2024-02-16T13:52:07;26.20;75.10
81867;DHT22;71318;-36.550;-64.300;2024-02-16T13:54:34;26.60;76.00
81867;DHT22;71318;-36.550;-64.300;2024-02-16T13:57:01;26.70;74.90
81867;DHT22;71318;-36.550;-64.300;2024-02-16T13:59:27;26.50;73.80
81867;DHT22;71318;-36.550;-64.300;2024-02-16T14:01:55;26.70;74.50
81867;DHT22;71318;-36.550;-64.300;2024-02-16T14:04:22;26.90;73.20
81867;DHT22;71318;-36.550;-64.300;2024-02-16T14:06:49;26.80;73.40
81867;DHT22;71318;-36.550;-64.300;2024-02-16T14:09:16;27.00;72.30
81867;DHT22;71318;-36.550;-64.300;2024-02-16T14:11:44;27.20;72.10
81867;DHT22;71318;-36.550;-64.300;2024-02-16T14:14:11;26.70;71.10
81867;DHT22;71318;-36.550;-64.300;2024-02-16T14:16:37;26.90;70.90
81867;DHT22;71318;-36.550;-64.300;2024-02-16T14:19:04;27.00;70.60
81867;DHT22;71318;-36.550;-64.300;2024-02-16T14:21:30;27.00;71.40
81867;DHT22;71318;-36.550;-64.300;2024-02-16T14:23:56;27.10;72.50
81867;DHT22;71318;-36.550;-64.300;2024-02-16T14:26:23;27.10;70.30
81867;DHT22;71318;-36.550;-64.300;2024-02-16T14:28:49;27.20;70.30
81867;DHT22;71318;-36.550;-64.300;2024-02-16T18:10:22;30.70;60.30
81867;DHT22;71318;-36.550;-64.300;2024-02-16T18:12:48;30.60;62.90
81867;DHT22;71318;-36.550;-64.300;2024-02-16T18:15:15;30.50;60.50
81867;DHT22;71318;-36.550;-64.300;2024-02-16T18:17:42;30.20;59.70
81867;DHT22;71318;-36.550;-64.300;2024-02-16T18:20:09;30.80;62.40
81867;DHT22;71318;-36.550;-64.300;2024-02-16T18:22:36;30.70;60.60
81867;DHT22;71318;-36.550;-64.300;2024-02-16T18:25:02;30.50;60.00
81867;DHT22;71318;-36.550;-64.300;2024-02-16T18:27:29;30.80;58.60
81867;DHT22;71318;-36.550;-64.300;2024-02-16T18:29:56;30.40;59.10
81867;DHT22;71318;-36.550;-64.300;2024-02-16T18:32:22;30.60;60.30
81867;DHT22;71318;-36.550;-64.300;2024-02-16T18:34:49;30.50;62.50
81867;DHT22;71318;-36.550;-64.300;2024-02-16T18:37:15;30.40;61.80
81867;DHT22;71318;-36.550;-64.300;2024-02-16T18:39:41;30.30;61.60
81867;DHT22;71318;-36.550;-64.300;2024-02-16T18:42:08;30.30;60.10
81867;DHT22;71318;-36.550;-64.300;2024-02-16T18:44:34;30.60;61.30
81867;DHT22;71318;-36.550;-64.300;2024-02-16T18:47:01;30.90;59.40
81867;DHT22;71318;-36.550;-64.300;2024-02-16T18:49:28;30.50;60.00
81867;DHT22;71318;-36.550;-64.300;2024-02-16T18:51:56;30.60;58.30
81867;DHT22;71318;-36.550;-64.300;2024-02-16T18:54:23;30.60;57.50
81867;DHT22;71318;-36.550;-64.300;2024-02-16T18:56:49;30.50;58.80
81867;DHT22;71318;-36.550;-64.300;2024-02-16T18:59:16;30.40;59.90
81867;DHT22;71318;-36.550;-64.300;2024-02-16T19:01:42;30.60;59.90
81867;DHT22;71318;-36.550;-64.300;2024-02-16T19:04:09;30.50;58.70
81867;DHT22;71318;-36.550;-64.300;2024-02-16T19:06:35;30.30;59.20
81867;DHT22;71318;-36.550;-64.300;2024-02-16T19:09:01;30.30;61.10
81867;DHT22;71318;-36.550;-64.300;2024-02-16T19:11:29;30.40;59.60
81867;DHT22;71318;-36.550;-64.300;2024-02-16T19:13:55;30.40;57.20
81867;DHT22;71318;-36.550;-64.300;2024-02-16T19:16:23;30.30;56.00
81867;DHT22;71318;-36.550;-64.300;2024-02-16T19:18:49;30.60;54.50
81867;DHT22;71318;-36.550;-64.300;2024-02-16T19:21:16;30.60;58.40
81867;DHT22;71318;-36.550;-64.300;2024-02-16T19:23:42;30.50;60.30
81867;DHT22;71318;-36.550;-64.300;2024-02-16T19:26:10;30.50;57.50
81867;DHT22;71318;-36.550;-64.300;2024-02-16T19:28:36;30.50;60.60
81867;DHT22;71318;-36.550;-64.300;2024-02-16T19:31:07;30.60;59.60
81867;DHT22;71318;-36.550;-64.300;2024-02-16T19:33:34;30.70;59.70
81867;DHT22;71318;-36.550;-64.300;2024-02-16T19:36:01;31.10;59.20
81867;DHT22;71318;-36.550;-64.300;2024-02-16T19:38:29;30.60;58.30
81867;DHT22;71318;-36.550;-64.300;2024-02-16T19:40:56;30.40;57.30
81867;DHT22;71318;-36.550;-64.300;2024-02-16T19:43:23;30.50;56.50
81867;DHT22;71318;-36.550;-64.300;2024-02-16T19:45:50;30.40;57.30
81867;DHT22;71318;-36.550;-64.300;2024-02-16T19:48:16;30.30;59.00
81867;DHT22;71318;-36.550;-64.300;2024-02-16T19:50:42;30.70;59.60
81867;DHT22;71318;-36.550;-64.300;2024-02-16T19:53:09;30.40;58.40
81867;DHT22;71318;-36.550;-64.300;2024-02-16T19:55:36;30.40;57.60
81867;DHT22;71318;-36.550;-64.300;2024-02-16T19:58:02;30.30;57.30
81867;DHT22;71318;-36.550;-64.300;2024-02-16T20:00:28;30.40;55.90
81867;DHT22;71318;-36.550;-64.300;2024-02-16T20:02:55;30.30;57.20
81867;DHT22;71318;-36.550;-64.300;2024-02-16T20:05:25;30.30;57.00
81867;DHT22;71318;-36.550;-64.300;2024-02-16T20:07:51;30.20;57.30
81867;DHT22;71318;-36.550;-64.300;2024-02-16T20:10:17;30.00;59.00
81867;DHT22;71318;-36.550;-64.300;2024-02-16T20:12:44;30.20;59.00
81867;DHT22;71318;-36.550;-64.300;2024-02-16T20:15:10;30.20;58.90
81867;DHT22;71318;-36.550;-64.300;2024-02-16T20:17:37;30.30;58.90
81867;DHT22;71318;-36.550;-64.300;2024-02-16T20:20:03;30.20;59.80
81867;DHT22;71318;-36.550;-64.300;2024-02-16T20:22:32;30.10;56.80
81867;DHT22;71318;-36.550;-64.300;2024-02-16T20:24:59;30.10;58.40
81867;DHT22;71318;-36.550;-64.300;2024-02-16T20:27:26;29.90;57.90
81867;DHT22;71318;-36.550;-64.300;2024-02-16T20:29:52;29.90;56.00
81867;DHT22;71318;-36.550;-64.300;2024-02-16T20:32:20;30.10;58.30
81867;DHT22;71318;-36.550;-64.300;2024-02-16T20:34:47;30.00;59.80
81867;DHT22;71318;-36.550;-64.300;2024-02-16T20:37:14;30.30;59.80
81867;DHT22;71318;-36.550;-64.300;2024-02-16T20:39:40;30.20;57.00
81867;DHT22;71318;-36.550;-64.300;2024-02-16T20:42:07;30.00;57.70
81867;DHT22;71318;-36.550;-64.300;2024-02-16T20:44:33;29.70;58.80
81867;DHT22;71318;-36.550;-64.300;2024-02-16T20:46:59;29.70;58.90
81867;DHT22;71318;-36.550;-64.300;2024-02-16T20:49:26;29.80;59.50
81867;DHT22;71318;-36.550;-64.300;2024-02-16T20:51:52;29.80;58.80
81867;DHT22;71318;-36.550;-64.300;2024-02-16T20:54:18;29.60;58.90
81867;DHT22;71318;-36.550;-64.300;2024-02-16T20:56:46;29.70;58.60
81867;DHT22;71318;-36.550;-64.300;2024-02-16T20:59:13;29.60;58.60
81867;DHT22;71318;-36.550;-64.300;2024-02-16T21:01:39;29.80;57.20
81867;DHT22;71318;-36.550;-64.300;2024-02-16T21:04:05;29.50;57.70
81867;DHT22;71318;-36.550;-64.300;2024-02-16T21:06:32;29.40;57.60
81867;DHT22;71318;-36.550;-64.300;2024-02-16T21:09:00;29.50;56.80
81867;DHT22;71318;-36.550;-64.300;2024-02-16T21:11:28;29.40;57.30
81867;DHT22;71318;-36.550;-64.300;2024-02-16T21:13:54;29.50;57.60
81867;DHT22;71318;-36.550;-64.300;2024-02-16T21:16:21;29.40;57.60
81867;DHT22;71318;-36.550;-64.300;2024-02-16T21:18:48;29.40;58.00
81867;DHT22;71318;-36.550;-64.300;2024-02-16T21:21:14;29.20;58.00
81867;DHT22;71318;-36.550;-64.300;2024-02-16T21:23:41;29.20;58.00
81867;DHT22;71318;-36.550;-64.300;2024-02-16T21:26:07;29.10;57.80
81867;DHT22;71318;-36.550;-64.300;2024-02-16T21:28:33;29.20;58.40
81867;DHT22;71318;-36.550;-64.300;2024-02-16T21:31:00;28.90;59.10
81867;DHT22;71318;-36.550;-64.300;2024-02-16T21:33:26;28.90;59.90
81867;DHT22;71318;-36.550;-64.300;2024-02-16T21:35:53;28.80;59.20
81867;DHT22;71318;-36.550;-64.300;2024-02-16T21:38:21;29.00;60.20
81867;DHT22;71318;-36.550;-64.300;2024-02-16T21:40:48;29.00;59.90
81867;DHT22;71318;-36.550;-64.300;2024-02-16T21:43:14;29.00;59.60
81867;DHT22;71318;-36.550;-64.300;2024-02-16T21:45:41;28.90;60.40
81867;DHT22;71318;-36.550;-64.300;2024-02-16T21:48:07;28.90;60.50
81867;DHT22;71318;-36.550;-64.300;2024-02-16T21:50:35;28.80;60.60
81867;DHT22;71318;-36.550;-64.300;2024-02-16T21:53:01;28.70;60.50
81867;DHT22;71318;-36.550;-64.300;2024-02-16T21:55:27;28.50;61.30
81867;DHT22;71318;-36.550;-64.300;2024-02-16T21:57:54;28.50;61.40
81867;DHT22;71318;-36.550;-64.300;2024-02-16T22:00:20;28.50;61.90
81867;DHT22;71318;-36.550;-64.300;2024-02-16T22:02:47;28.40;60.90
81867;DHT22;71318;-36.550;-64.300;2024-02-16T22:05:13;28.30;60.40
81867;DHT22;71318;-36.550;-64.300;2024-02-16T22:07:39;28.20;62.10
81867;DHT22;71318;-36.550;-64.300;2024-02-16T22:10:06;28.20;61.90
81867;DHT22;71318;-36.550;-64.300;2024-02-16T22:12:32;28.20;61.60
81867;DHT22;71318;-36.550;-64.300;2024-02-16T22:14:59;28.00;60.80
81867;DHT22;71318;-36.550;-64.300;2024-02-16T22:17:25;28.00;61.50
81867;DHT22;71318;-36.550;-64.300;2024-02-16T22:19:51;27.90;62.60
81867;DHT22;71318;-36.550;-64.300;2024-02-16T22:22:18;27.80;62.80
81867;DHT22;71318;-36.550;-64.300;2024-02-16T22:24:44;27.80;63.20
81867;DHT22;71318;-36.550;-64.300;2024-02-16T22:27:10;27.80;63.60
81867;DHT22;71318;-36.550;-64.300;2024-02-16T22:29:37;27.70;63.70
81867;DHT22;71318;-36.550;-64.300;2024-02-16T22:32:03;27.60;65.10
81867;DHT22;71318;-36.550;-64.300;2024-02-16T22:34:30;27.50;66.00
81867;DHT22;71318;-36.550;-64.300;2024-02-16T22:36:56;27.40;65.70
81867;DHT22;71318;-36.550;-64.300;2024-02-16T22:39:22;27.30;65.40
81867;DHT22;71318;-36.550;-64.300;2024-02-16T22:41:49;27.20;65.80
81867;DHT22;71318;-36.550;-64.300;2024-02-16T22:45:52;27.10;66.10
81867;DHT22;71318;-36.550;-64.300;2024-02-16T22:48:18;27.10;66.60
81867;DHT22;71318;-36.550;-64.300;2024-02-16T22:50:45;27.00;66.60
81867;DHT22;71318;-36.550;-64.300;2024-02-16T22:53:12;27.00;66.50
81867;DHT22;71318;-36.550;-64.300;2024-02-16T22:55:39;26.80;67.20
81867;DHT22;71318;-36.550;-64.300;2024-02-16T22:58:05;26.60;67.50
81867;DHT22;71318;-36.550;-64.300;2024-02-16T23:00:34;26.60;67.10
81867;DHT22;71318;-36.550;-64.300;2024-02-16T23:03:05;26.60;67.30
81867;DHT22;71318;-36.550;-64.300;2024-02-16T23:05:32;26.40;68.50
81867;DHT22;71318;-36.550;-64.300;2024-02-16T23:07:59;26.30;70.20
81867;DHT22;71318;-36.550;-64.300;2024-02-16T23:10:26;26.20;70.70
81867;DHT22;71318;-36.550;-64.300;2024-02-16T23:12:52;26.10;71.10
81867;DHT22;71318;-36.550;-64.300;2024-02-16T23:15:19;26.10;71.40
81867;DHT22;71318;-36.550;-64.300;2024-02-16T23:17:48;26.10;71.80
81867;DHT22;71318;-36.550;-64.300;2024-02-16T23:20:15;25.90;72.10
81867;DHT22;71318;-36.550;-64.300;2024-02-16T23:23:01;25.80;72.70
81867;DHT22;71318;-36.550;-64.300;2024-02-16T23:25:28;25.80;72.80
81867;DHT22;71318;-36.550;-64.300;2024-02-16T23:27:55;25.70;73.30
81867;DHT22;71318;-36.550;-64.300;2024-02-16T23:30:21;25.70;73.10
81867;DHT22;71318;-36.550;-64.300;2024-02-16T23:32:48;25.70;73.60
81867;DHT22;71318;-36.550;-64.300;2024-02-16T23:35:14;25.60;74.00
81867;DHT22;71318;-36.550;-64.300;2024-02-16T23:37:41;25.40;74.30
81867;DHT22;71318;-36.550;-64.300;2024-02-16T23:40:07;25.40;74.30
81867;DHT22;71318;-36.550;-64.300;2024-02-16T23:42:34;25.30;74.60
81867;DHT22;71318;-36.550;-64.300;2024-02-16T23:45:05;25.40;74.30
81867;DHT22;71318;-36.550;-64.300;2024-02-16T23:47:31;25.30;74.50
81867;DHT22;71318;-36.550;-64.300;2024-02-16T23:49:59;25.20;74.90
81867;DHT22;71318;-36.550;-64.300;2024-02-16T23:52:26;25.10;75.10
81867;DHT22;71318;-36.550;-64.300;2024-02-16T23:54:58;25.10;75.10
81867;DHT22;71318;-36.550;-64.300;2024-02-16T23:57:24;25.00;75.40
81867;DHT22;71318;-36.550;-64.300;2024-02-16T23:59:51;25.10;75.10
